Time;durP1;ratioP1;P1;durP2;ratioP2;P2;SDS_P1;SDS_P2;PMS_P1;PMS_P2;Temp;Humidity;BMP_temperature;BMP_pressure;BME280_temperature;BME280_humidity;BME280_pressure;Samples;Min_cycle;Max_cycle;Signal;HPM_P1;HPM_P2
2022/03/05 00:00:16;;;;;;;5.13;2.28;;;2.00;99.90;;;;;;5034843;28;20021;-71
2022/03/05 00:02:42;;;;;;;7.40;2.38;;;2.10;99.90;;;;;;5070829;28;20086;-71
2022/03/05 00:05:10;;;;;;;6.20;2.13;;;2.00;99.90;;;;;;5068583;28;20028;-71
2022/03/05 00:07:36;;;;;;;8.52;2.38;;;2.00;99.90;;;;;;5071678;28;20016;-70
2022/03/05 00:10:02;;;;;;;6.90;2.40;;;2.00;99.90;;;;;;5067667;28;20021;-71
2022/03/05 00:12:28;;;;;;;6.75;2.38;;;1.90;99.90;;;;;;5071420;28;20026;-71
2022/03/05 00:14:54;;;;;;;5.93;2.08;;;1.90;99.90;;;;;;5033920;28;20039;-71
2022/03/05 00:17:20;;;;;;;7.93;2.60;;;1.90;99.90;;;;;;5036242;28;20036;-71
2022/03/05 00:19:45;;;;;;;5.25;2.38;;;1.90;99.90;;;;;;5070156;28;20035;-71
2022/03/05 00:22:11;;;;;;;5.95;2.50;;;1.80;99.90;;;;;;5072057;28;20484;-72
2022/03/05 00:24:37;;;;;;;4.72;2.30;;;1.80;99.90;;;;;;5067663;28;20024;-71
2022/03/05 00:27:04;;;;;;;7.32;2.63;;;1.90;99.90;;;;;;5051165;28;20394;-71
2022/03/05 00:29:30;;;;;;;8.55;2.67;;;1.80;99.90;;;;;;5035038;28;20370;-71
2022/03/05 00:31:57;;;;;;;9.05;3.00;;;1.80;99.90;;;;;;5051724;28;20032;-71
2022/03/05 00:34:22;;;;;;;7.53;2.60;;;1.80;99.90;;;;;;5070251;28;20425;-71
2022/03/05 00:36:48;;;;;;;5.90;2.33;;;1.80;99.90;;;;;;5070052;28;20025;-71
2022/03/05 00:39:14;;;;;;;5.53;2.83;;;1.80;99.90;;;;;;5070280;28;20531;-71
2022/03/05 00:41:40;;;;;;;5.63;2.67;;;1.80;99.90;;;;;;5075779;28;20024;-71
2022/03/05 00:44:06;;;;;;;9.40;2.58;;;1.80;99.90;;;;;;5052362;28;20020;-71
2022/03/05 00:46:32;;;;;;;7.03;2.50;;;1.80;99.90;;;;;;5051251;28;20037;-71
2022/03/05 00:48:58;;;;;;;5.60;2.35;;;1.80;99.90;;;;;;5051277;28;20052;-70
2022/03/05 00:51:24;;;;;;;5.20;2.45;;;1.80;99.90;;;;;;5051526;28;20025;-71
2022/03/05 00:53:49;;;;;;;6.43;2.72;;;1.70;99.90;;;;;;5071096;28;20024;-71
2022/03/05 00:56:15;;;;;;;5.15;2.10;;;1.70;99.90;;;;;;5069194;28;20028;-71
2022/03/05 00:58:41;;;;;;;6.13;2.47;;;1.70;99.90;;;;;;5032957;28;20044;-71
2022/03/05 01:01:06;;;;;;;4.10;2.13;;;1.70;99.90;;;;;;5049125;28;20370;-71
2022/03/05 01:03:32;;;;;;;5.35;2.42;;;1.70;99.90;;;;;;5068845;28;20048;-71
2022/03/05 01:05:57;;;;;;;6.57;2.20;;;1.60;99.90;;;;;;5068545;28;20089;-71
2022/03/05 01:08:23;;;;;;;4.07;2.20;;;1.60;99.90;;;;;;5069800;28;20028;-72
2022/03/05 01:10:49;;;;;;;5.85;3.03;;;1.60;99.90;;;;;;5051671;28;20028;-71
2022/03/05 01:13:14;;;;;;;6.80;2.88;;;1.60;99.90;;;;;;5069433;28;20020;-70
2022/03/05 01:15:40;;;;;;;5.35;2.30;;;1.60;99.90;;;;;;5049625;28;20045;-70
2022/03/05 01:18:06;;;;;;;7.43;2.35;;;1.50;99.90;;;;;;5067741;28;20029;-71
2022/03/05 01:20:31;;;;;;;4.93;1.90;;;1.50;99.90;;;;;;5052421;28;20025;-71
2022/03/05 01:22:57;;;;;;;6.10;2.15;;;1.50;99.90;;;;;;5067829;28;20085;-71
2022/03/05 01:25:23;;;;;;;6.80;3.35;;;1.50;99.90;;;;;;5049174;28;20126;-71
2022/03/05 01:27:48;;;;;;;6.22;2.53;;;1.50;99.90;;;;;;5068527;28;20554;-71
2022/03/05 01:30:14;;;;;;;5.55;2.35;;;1.40;99.90;;;;;;5065926;28;20031;-71
2022/03/05 01:32:40;;;;;;;7.38;2.28;;;1.40;99.90;;;;;;5063307;28;20031;-71
2022/03/05 01:35:06;;;;;;;9.57;2.50;;;1.40;99.90;;;;;;5050773;28;20035;-71
2022/03/05 01:37:32;;;;;;;6.13;2.28;;;1.40;99.90;;;;;;5068640;28;20020;-71
2022/03/05 01:39:58;;;;;;;5.57;2.03;;;1.40;99.90;;;;;;5051701;28;20045;-71
2022/03/05 01:42:27;;;;;;;9.73;2.67;;;1.40;99.90;;;;;;5067181;28;20397;-71
2022/03/05 01:44:52;;;;;;;6.78;2.13;;;1.40;99.90;;;;;;5068422;28;20081;-71
2022/03/05 01:47:19;;;;;;;6.72;3.08;;;1.40;99.90;;;;;;5066538;28;20489;-71
2022/03/05 01:49:45;;;;;;;5.20;2.40;;;1.40;99.90;;;;;;5034771;28;20465;-71
2022/03/05 01:52:11;;;;;;;9.05;2.20;;;1.40;99.90;;;;;;5068254;28;20044;-71
2022/03/05 01:54:38;;;;;;;10.63;2.22;;;1.40;99.90;;;;;;5074967;28;20027;-71
2022/03/05 01:57:04;;;;;;;4.20;2.00;;;1.40;99.90;;;;;;5080944;28;20099;-71
2022/03/05 01:59:30;;;;;;;5.07;2.22;;;1.40;99.90;;;;;;5084691;28;20032;-72
2022/03/05 02:01:55;;;;;;;7.57;2.40;;;1.40;99.90;;;;;;5085048;28;20037;-71
2022/03/05 02:04:21;;;;;;;7.80;2.45;;;1.40;99.90;;;;;;5083010;28;20031;-71
2022/03/05 02:06:47;;;;;;;9.50;2.83;;;1.30;99.90;;;;;;5072266;28;20028;-71
2022/03/05 02:09:13;;;;;;;5.00;2.15;;;1.30;99.90;;;;;;5049543;28;20032;-71
2022/03/05 02:11:39;;;;;;;8.25;2.67;;;1.30;99.90;;;;;;5050859;28;20024;-71
2022/03/05 02:14:05;;;;;;;4.75;2.05;;;1.30;99.90;;;;;;5049699;28;20024;-71
2022/03/05 02:16:31;;;;;;;7.32;2.88;;;1.30;99.90;;;;;;5066036;28;20031;-71
2022/03/05 02:18:57;;;;;;;6.15;2.65;;;1.30;99.90;;;;;;5032666;28;20394;-71
2022/03/05 02:21:25;;;;;;;5.57;2.33;;;1.20;99.90;;;;;;5066924;28;20016;-71
2022/03/05 02:23:51;;;;;;;5.60;2.45;;;1.20;99.90;;;;;;5066535;28;20029;-71
2022/03/05 02:26:17;;;;;;;5.38;2.33;;;1.20;99.90;;;;;;5066608;28;20103;-71
2022/03/05 02:28:43;;;;;;;5.53;2.47;;;1.20;99.90;;;;;;5048787;28;20107;-71
2022/03/05 02:31:09;;;;;;;5.95;2.50;;;1.20;99.90;;;;;;5066105;28;21098;-71
2022/03/05 02:33:35;;;;;;;6.50;2.40;;;1.20;99.90;;;;;;5066537;28;20035;-71
2022/03/05 02:36:02;;;;;;;5.38;2.65;;;1.20;99.90;;;;;;5032516;28;20393;-71
2022/03/05 02:38:28;;;;;;;5.25;2.58;;;1.20;99.90;;;;;;5067520;28;20028;-71
2022/03/05 02:40:53;;;;;;;4.82;2.22;;;1.20;99.90;;;;;;5064812;28;20021;-72
2022/03/05 02:43:21;;;;;;;8.85;3.10;;;1.10;99.90;;;;;;5048090;28;20017;-71
2022/03/05 02:45:48;;;;;;;10.80;2.50;;;1.10;99.90;;;;;;5047280;28;20040;-71
2022/03/05 02:48:15;;;;;;;5.65;2.50;;;1.10;99.90;;;;;;5068041;28;20048;-71
2022/03/05 02:50:42;;;;;;;5.38;2.17;;;1.10;99.90;;;;;;5067167;28;20068;-71
2022/03/05 02:53:08;;;;;;;7.70;2.63;;;1.10;99.90;;;;;;5066183;28;20075;-71
2022/03/05 02:55:34;;;;;;;7.30;2.38;;;1.10;99.90;;;;;;5067332;28;20056;-72
2022/03/05 02:58:00;;;;;;;7.68;2.67;;;1.00;99.90;;;;;;5063617;28;20032;-70
2022/03/05 03:00:26;;;;;;;6.85;2.63;;;1.00;99.90;;;;;;5067530;28;20059;-71
2022/03/05 03:02:52;;;;;;;6.25;2.45;;;1.00;99.90;;;;;;5065922;28;20058;-71
2022/03/05 03:05:18;;;;;;;5.70;2.30;;;1.00;99.90;;;;;;5065883;28;20478;-71
2022/03/05 03:07:44;;;;;;;4.15;2.05;;;1.00;99.90;;;;;;5066551;28;20188;-71
2022/03/05 03:10:12;;;;;;;5.85;2.28;;;1.00;99.90;;;;;;5048484;28;20182;-71
2022/03/05 03:12:38;;;;;;;4.30;2.40;;;1.00;99.90;;;;;;5066013;28;20028;-71
2022/03/05 03:15:06;;;;;;;5.57;2.22;;;1.00;99.90;;;;;;5063480;28;20025;-71
2022/03/05 03:17:47;;;;;;;8.63;2.40;;;1.00;99.90;;;;;;5049000;28;20128;-71
2022/03/05 03:20:15;;;;;;;6.45;2.00;;;1.00;99.90;;;;;;5066721;28;20047;-72
2022/03/05 03:22:41;;;;;;;7.80;2.20;;;1.00;99.90;;;;;;5065643;28;20086;-71
2022/03/05 03:25:07;;;;;;;5.80;2.40;;;1.00;99.90;;;;;;5031146;28;20029;-71
2022/03/05 03:27:34;;;;;;;6.05;2.22;;;0.90;99.90;;;;;;5049647;28;20032;-71
2022/03/05 03:29:59;;;;;;;7.13;2.08;;;0.90;99.90;;;;;;5047079;28;20551;-72
2022/03/05 03:32:25;;;;;;;5.85;2.45;;;0.90;99.90;;;;;;5062605;28;20036;-71
2022/03/05 03:34:50;;;;;;;6.15;1.90;;;0.90;99.90;;;;;;5066451;28;20035;-71
2022/03/05 03:37:16;;;;;;;4.32;1.95;;;0.80;99.90;;;;;;5067562;28;20101;-71
2022/03/05 03:39:42;;;;;;;4.15;1.95;;;0.80;99.90;;;;;;5065534;28;20029;-71
2022/03/05 03:42:08;;;;;;;5.68;1.85;;;0.90;99.90;;;;;;5063832;28;20077;-71
2022/03/05 03:44:33;;;;;;;8.25;2.13;;;0.80;99.90;;;;;;5065042;28;20021;-71
2022/03/05 03:46:59;;;;;;;5.55;2.10;;;0.80;99.90;;;;;;5078513;22;20055;-69
2022/03/05 03:49:26;;;;;;;8.45;2.08;;;0.90;99.90;;;;;;5080603;28;20056;-68
2022/03/05 03:51:52;;;;;;;6.35;1.95;;;0.90;99.90;;;;;;5083087;28;20020;-67
2022/03/05 03:54:17;;;;;;;6.03;2.17;;;0.90;99.90;;;;;;5060606;28;20042;-67
2022/03/05 03:56:43;;;;;;;8.85;2.47;;;0.80;99.90;;;;;;5054840;28;21106;-67
2022/03/05 03:59:09;;;;;;;5.03;1.92;;;0.80;99.90;;;;;;5065689;28;20108;-68
2022/03/05 04:01:35;;;;;;;5.78;1.90;;;0.80;99.90;;;;;;5045670;28;20047;-69
2022/03/05 04:04:01;;;;;;;7.15;2.08;;;0.80;99.90;;;;;;5031265;28;20477;-68
2022/03/05 04:08:41;;;;;;;5.95;2.05;;;0.80;99.90;;;;;;5063813;28;20033;-68
2022/03/05 04:09:12;;;;;;;5.50;2.13;;;0.80;99.90;;;;;;5047426;28;20507;-67
2022/03/05 04:11:38;;;;;;;4.72;1.85;;;0.80;99.90;;;;;;5050367;28;20032;-66
2022/03/05 04:14:04;;;;;;;7.18;2.25;;;0.80;99.90;;;;;;5065188;28;20032;-70
2022/03/05 04:16:30;;;;;;;6.50;2.08;;;0.80;99.90;;;;;;5064261;28;20028;-69
2022/03/05 04:18:55;;;;;;;3.80;1.80;;;0.80;99.90;;;;;;5031904;28;20099;-69
2022/03/05 04:21:21;;;;;;;6.68;2.25;;;0.80;99.90;;;;;;5048846;28;20028;-69
2022/03/05 04:23:47;;;;;;;6.30;1.75;;;0.70;99.90;;;;;;5067476;28;20029;-69
2022/03/05 04:26:12;;;;;;;7.38;2.22;;;0.70;99.90;;;;;;5068710;28;20028;-70
2022/03/05 04:28:38;;;;;;;6.07;2.10;;;0.70;99.90;;;;;;5051580;28;20148;-68
2022/03/05 04:31:04;;;;;;;5.93;2.08;;;0.70;99.90;;;;;;5066369;28;20048;-69
2022/03/05 04:33:29;;;;;;;5.60;2.25;;;0.70;99.90;;;;;;5069921;28;20032;-68
2022/03/05 04:35:55;;;;;;;6.05;2.15;;;0.70;99.90;;;;;;5050013;28;20116;-70
2022/03/05 04:38:21;;;;;;;5.20;2.33;;;0.70;99.90;;;;;;5065479;28;20107;-67
2022/03/05 04:40:46;;;;;;;5.38;2.47;;;0.70;99.90;;;;;;5068389;28;20231;-67
2022/03/05 04:43:12;;;;;;;6.03;2.20;;;0.70;99.90;;;;;;5050199;28;20055;-67
2022/03/05 04:45:38;;;;;;;6.72;2.40;;;0.70;99.90;;;;;;5068772;28;20020;-69
2022/03/05 04:48:04;;;;;;;6.53;3.28;;;0.70;99.90;;;;;;5034800;28;20020;-68
2022/03/05 04:50:30;;;;;;;8.85;2.58;;;0.70;99.90;;;;;;5068747;28;20093;-69
2022/03/05 04:52:55;;;;;;;4.82;2.22;;;0.70;99.90;;;;;;5049603;28;20103;-68
2022/03/05 04:55:21;;;;;;;10.55;3.80;;;0.70;99.90;;;;;;5069288;28;21007;-69
2022/03/05 04:57:47;;;;;;;12.18;3.58;;;0.60;99.90;;;;;;5042881;28;20110;-68
2022/03/05 05:00:13;;;;;;;7.72;2.35;;;0.70;99.90;;;;;;5048983;28;20033;-68
2022/03/05 05:02:39;;;;;;;4.47;2.22;;;0.60;99.90;;;;;;5056186;28;20067;-70
2022/03/05 05:05:05;;;;;;;8.48;2.42;;;0.60;99.90;;;;;;5050462;28;20486;-69
2022/03/05 05:07:31;;;;;;;7.32;2.53;;;0.60;99.90;;;;;;5065072;28;20028;-68
2022/03/05 05:09:57;;;;;;;7.32;3.00;;;0.60;99.90;;;;;;5047603;28;20024;-67
2022/03/05 05:12:23;;;;;;;4.57;2.22;;;0.60;99.90;;;;;;5063543;28;20394;-69
2022/03/05 05:14:49;;;;;;;6.60;2.50;;;0.60;99.90;;;;;;5062051;28;20024;-67
2022/03/05 05:17:14;;;;;;;7.15;2.65;;;0.60;99.90;;;;;;5065501;28;20036;-67
2022/03/05 05:19:40;;;;;;;4.07;2.35;;;0.60;99.90;;;;;;5047488;28;20025;-69
2022/03/05 05:22:06;;;;;;;7.43;2.40;;;0.60;99.90;;;;;;5045706;28;20021;-69
2022/03/05 05:24:36;;;;;;;5.70;2.30;;;0.50;99.90;;;;;;5064437;28;20032;-69
2022/03/05 05:27:03;;;;;;;6.57;2.70;;;0.50;99.90;;;;;;5063180;28;20438;-68
2022/03/05 05:29:28;;;;;;;7.82;2.92;;;0.50;99.90;;;;;;5054804;28;20311;-69
2022/03/05 05:31:57;;;;;;;9.07;2.83;;;0.50;99.90;;;;;;5068250;28;20474;-69
2022/03/05 05:34:23;;;;;;;7.43;3.00;;;0.50;99.90;;;;;;5061133;28;20040;-68
2022/03/05 05:36:49;;;;;;;6.32;2.65;;;0.50;99.90;;;;;;5065364;28;20039;-68
2022/03/05 05:39:16;;;;;;;6.93;2.63;;;0.50;99.90;;;;;;5063616;28;20093;-68
2022/03/05 05:41:42;;;;;;;5.80;2.28;;;0.60;99.90;;;;;;5029272;28;20021;-68
2022/03/05 05:44:10;;;;;;;6.25;2.80;;;0.60;99.90;;;;;;5048300;28;20055;-67
2022/03/05 05:46:36;;;;;;;6.60;2.80;;;0.50;99.90;;;;;;5045297;28;20033;-68
2022/03/05 05:49:03;;;;;;;8.13;3.10;;;0.50;99.90;;;;;;5046689;28;20738;-67
2022/03/05 05:51:29;;;;;;;7.07;2.50;;;0.50;99.90;;;;;;5063232;28;20112;-68
2022/03/05 05:53:56;;;;;;;7.90;2.92;;;0.50;99.90;;;;;;5063815;28;20460;-68
2022/03/05 05:56:22;;;;;;;5.32;2.67;;;0.40;99.90;;;;;;5050295;28;20032;-68
2022/03/05 05:58:49;;;;;;;5.95;2.97;;;0.50;99.90;;;;;;5046254;28;20075;-68
2022/03/05 06:01:15;;;;;;;8.27;3.20;;;0.50;99.90;;;;;;5064602;28;20120;-67
2022/03/05 06:03:42;;;;;;;6.28;3.17;;;0.50;99.90;;;;;;5063664;28;20068;-68
2022/03/05 06:06:08;;;;;;;8.23;3.28;;;0.50;99.90;;;;;;5063559;28;20043;-68
2022/03/05 06:08:33;;;;;;;5.97;2.72;;;0.40;99.90;;;;;;5063544;28;20037;-68
2022/03/05 06:11:00;;;;;;;8.25;3.83;;;0.50;99.90;;;;;;5063375;28;20111;-66
2022/03/05 06:13:25;;;;;;;8.05;2.90;;;0.50;99.90;;;;;;5061615;28;20151;-68
2022/03/05 06:15:51;;;;;;;6.47;3.17;;;0.50;99.90;;;;;;5039525;28;20099;-68
2022/03/05 06:18:17;;;;;;;7.95;3.42;;;0.50;99.90;;;;;;5066019;28;20028;-67
2022/03/05 06:20:43;;;;;;;6.43;2.92;;;0.50;99.90;;;;;;5048989;28;20436;-68
2022/03/05 06:23:09;;;;;;;9.25;3.40;;;0.50;99.90;;;;;;5066161;28;20055;-68
2022/03/05 06:25:35;;;;;;;8.63;3.40;;;0.50;99.90;;;;;;5066188;28;20398;-67
2022/03/05 06:28:01;;;;;;;8.20;3.50;;;0.50;99.90;;;;;;5047610;28;20025;-67
2022/03/05 06:30:27;;;;;;;9.18;3.10;;;0.50;99.90;;;;;;5045433;28;20105;-68
2022/03/05 06:32:52;;;;;;;8.77;3.97;;;0.50;99.90;;;;;;5059307;28;20025;-67
2022/03/05 06:35:18;;;;;;;8.27;3.30;;;0.50;99.90;;;;;;5043143;28;20108;-67
2022/03/05 06:37:45;;;;;;;5.65;3.30;;;0.50;99.90;;;;;;5064146;28;20123;-67
2022/03/05 06:40:11;;;;;;;8.43;3.53;;;0.60;99.90;;;;;;5064217;28;20530;-67
2022/03/05 06:42:45;;;;;;;6.15;3.15;;;0.60;99.90;;;;;;5058904;28;20452;-71
2022/03/05 06:45:11;;;;;;;7.45;3.28;;;0.60;99.90;;;;;;5043623;28;20346;-69
2022/03/05 06:47:38;;;;;;;7.35;3.50;;;0.60;99.90;;;;;;5048543;28;20521;-69
2022/03/05 06:50:05;;;;;;;8.70;3.10;;;0.60;99.90;;;;;;5041766;28;20028;-70
2022/03/05 06:52:30;;;;;;;7.82;3.70;;;0.60;99.90;;;;;;5062650;28;20448;-69
2022/03/05 06:54:57;;;;;;;9.27;3.70;;;0.60;99.90;;;;;;5061278;28;20514;-68
2022/03/05 06:57:23;;;;;;;11.40;3.30;;;0.70;99.90;;;;;;5045508;28;20119;-69
2022/03/05 06:59:49;;;;;;;9.82;3.67;;;0.60;99.90;;;;;;5045900;28;20390;-69
2022/03/05 07:02:15;;;;;;;10.25;3.45;;;0.60;99.90;;;;;;5047932;28;20078;-67
2022/03/05 07:04:41;;;;;;;8.43;3.08;;;0.60;99.90;;;;;;5061781;28;20024;-67
2022/03/05 07:07:08;;;;;;;8.82;3.72;;;0.70;99.90;;;;;;5045735;28;20033;-68
2022/03/05 07:09:34;;;;;;;6.35;3.35;;;0.70;99.90;;;;;;5035402;28;20032;-68
2022/03/05 07:12:00;;;;;;;7.95;3.58;;;0.80;99.90;;;;;;5060638;28;20025;-68
2022/03/05 07:14:27;;;;;;;6.55;3.35;;;0.80;99.90;;;;;;5063720;28;20028;-69
2022/03/05 07:17:05;;;;;;;6.20;3.28;;;0.90;99.90;;;;;;5044201;28;20450;-69
2022/03/05 07:19:31;;;;;;;11.07;3.67;;;0.90;99.90;;;;;;5041872;28;20406;-68
2022/03/05 07:21:57;;;;;;;6.85;3.67;;;0.90;99.90;;;;;;5041603;28;20036;-66
2022/03/05 07:24:22;;;;;;;9.10;3.20;;;1.00;99.90;;;;;;5043365;28;20049;-68
2022/03/05 07:26:48;;;;;;;6.97;2.92;;;1.00;99.90;;;;;;5040796;28;20786;-69
2022/03/05 07:29:14;;;;;;;6.30;3.70;;;1.10;99.90;;;;;;5041797;28;20033;-67
2022/03/05 07:31:39;;;;;;;7.80;3.78;;;1.10;99.90;;;;;;5039898;28;20028;-68
2022/03/05 07:34:05;;;;;;;11.90;4.10;;;1.10;99.90;;;;;;5039866;28;20076;-68
2022/03/05 07:36:31;;;;;;;10.13;3.80;;;1.20;99.90;;;;;;5040331;28;20398;-69
2022/03/05 07:38:56;;;;;;;9.95;4.22;;;1.20;99.90;;;;;;5035827;28;20368;-69
2022/03/05 07:41:22;;;;;;;7.28;3.42;;;1.20;99.90;;;;;;5038757;28;20470;-69
2022/03/05 07:43:48;;;;;;;6.47;3.65;;;1.30;99.90;;;;;;5039036;28;20033;-68
2022/03/05 07:46:13;;;;;;;11.57;4.47;;;1.30;99.90;;;;;;5036004;28;20490;-68
2022/03/05 07:48:39;;;;;;;12.63;4.32;;;1.40;99.90;;;;;;5040822;28;20040;-67
2022/03/05 07:51:05;;;;;;;9.25;3.58;;;1.40;99.90;;;;;;5042518;28;20033;-68
2022/03/05 07:53:31;;;;;;;11.85;5.00;;;1.40;99.90;;;;;;5040118;28;20027;-73
2022/03/05 07:55:57;;;;;;;9.45;4.15;;;1.40;99.90;;;;;;5038600;28;20124;-68
2022/03/05 07:58:23;;;;;;;10.88;5.07;;;1.50;99.90;;;;;;5039808;28;20516;-76
2022/03/05 08:00:49;;;;;;;6.10;3.53;;;1.50;99.90;;;;;;5039536;28;20029;-77
2022/03/05 08:03:15;;;;;;;13.95;4.70;;;1.50;99.90;;;;;;5042930;28;20039;-78
2022/03/05 08:05:43;;;;;;;11.52;4.35;;;1.60;99.90;;;;;;5013103;28;20284;-77
2022/03/05 08:08:08;;;;;;;13.85;5.07;;;1.60;99.90;;;;;;5033752;28;20057;-76
2022/03/05 08:10:34;;;;;;;11.60;4.47;;;1.70;99.90;;;;;;5040260;28;20116;-77
2022/03/05 08:13:00;;;;;;;8.95;4.18;;;1.70;99.90;;;;;;5039491;28;20475;-69
2022/03/05 08:15:25;;;;;;;9.90;4.30;;;1.70;99.90;;;;;;5038907;28;20486;-70
2022/03/05 08:17:53;;;;;;;8.65;3.95;;;1.80;99.90;;;;;;5040944;28;20033;-70
2022/03/05 08:20:19;;;;;;;9.38;3.78;;;1.80;99.90;;;;;;5040981;28;20033;-70
2022/03/05 08:22:45;;;;;;;12.52;4.63;;;1.90;99.90;;;;;;5036734;28;20495;-72
2022/03/05 08:25:12;;;;;;;11.43;4.70;;;1.90;99.90;;;;;;5033708;28;20041;-73
2022/03/05 08:27:38;;;;;;;10.50;4.60;;;1.90;99.90;;;;;;5028722;28;20083;-69
2022/03/05 08:30:05;;;;;;;9.60;4.45;;;2.00;99.90;;;;;;5020473;28;20091;-72
2022/03/05 08:32:30;;;;;;;9.38;4.35;;;2.00;99.90;;;;;;5006264;28;20036;-70
2022/03/05 08:34:57;;;;;;;9.00;4.65;;;2.00;99.90;;;;;;5026389;28;20419;-69
2022/03/05 08:37:22;;;;;;;9.07;4.43;;;2.10;99.90;;;;;;5023901;28;20033;-69
2022/03/05 08:39:48;;;;;;;9.95;4.78;;;2.10;99.90;;;;;;5027440;28;20030;-70
2022/03/05 08:42:14;;;;;;;9.00;4.55;;;2.20;99.90;;;;;;5029888;28;20025;-71
2022/03/05 08:44:40;;;;;;;6.82;4.07;;;2.20;99.90;;;;;;5029404;28;20026;-70
2022/03/05 08:47:06;;;;;;;8.77;4.43;;;2.20;99.90;;;;;;5029717;28;20406;-71
2022/03/05 08:49:31;;;;;;;10.68;4.82;;;2.20;99.90;;;;;;5025552;28;20027;-71
2022/03/05 08:51:57;;;;;;;11.02;4.55;;;2.30;99.90;;;;;;5023369;28;20028;-70
2022/03/05 08:54:25;;;;;;;10.35;4.55;;;2.30;99.90;;;;;;5036419;28;20030;-70
2022/03/05 08:56:53;;;;;;;15.18;5.03;;;2.40;99.90;;;;;;5028122;28;20697;-70
2022/03/05 08:59:19;;;;;;;11.80;5.32;;;2.40;99.90;;;;;;5023434;28;20079;-70
2022/03/05 09:01:45;;;;;;;11.75;5.43;;;2.40;99.90;;;;;;5025366;28;20018;-70
2022/03/05 09:04:11;;;;;;;13.23;5.45;;;2.40;99.90;;;;;;5008773;28;20025;-71
2022/03/05 09:06:38;;;;;;;11.68;5.38;;;2.50;99.90;;;;;;5010216;28;20466;-70
2022/03/05 09:09:05;;;;;;;14.32;4.45;;;2.50;99.90;;;;;;5008968;28;20076;-76
2022/03/05 09:11:31;;;;;;;10.85;5.80;;;2.50;99.90;;;;;;5028464;28;20064;-70
2022/03/05 09:13:57;;;;;;;12.90;5.07;;;2.60;99.90;;;;;;5009283;28;20065;-76
2022/03/05 09:16:22;;;;;;;10.32;5.40;;;2.60;99.90;;;;;;5026126;28;20470;-71
2022/03/05 09:18:48;;;;;;;11.18;5.55;;;2.60;99.90;;;;;;5031306;28;20029;-71
2022/03/05 09:21:14;;;;;;;10.55;5.28;;;2.70;99.90;;;;;;5017336;28;20025;-70
2022/03/05 09:23:40;;;;;;;11.20;5.03;;;2.80;99.90;;;;;;5018281;28;20079;-72
2022/03/05 09:26:06;;;;;;;10.30;5.25;;;2.80;99.90;;;;;;5021569;28;20475;-73
2022/03/05 09:28:31;;;;;;;12.13;5.88;;;2.80;99.90;;;;;;5026586;28;20044;-73
2022/03/05 09:30:58;;;;;;;11.05;5.97;;;2.90;99.90;;;;;;5020453;28;20037;-69
2022/03/05 09:33:25;;;;;;;10.93;5.70;;;2.90;99.90;;;;;;5019913;28;20037;-72
2022/03/05 09:35:51;;;;;;;10.02;5.32;;;3.00;99.90;;;;;;5020995;28;20064;-70
2022/03/05 09:38:18;;;;;;;12.65;5.95;;;3.00;99.90;;;;;;5020603;28;20498;-70
2022/03/05 09:40:44;;;;;;;12.55;5.88;;;3.10;99.90;;;;;;5023316;28;20485;-69
2022/03/05 09:43:10;;;;;;;13.50;6.43;;;3.20;99.90;;;;;;5025942;28;20040;-72
2022/03/05 09:45:36;;;;;;;14.15;6.78;;;3.30;99.90;;;;;;5031782;28;20025;-70
2022/03/05 09:48:02;;;;;;;13.07;6.45;;;3.40;99.90;;;;;;5017868;28;20044;-70
2022/03/05 09:50:29;;;;;;;14.18;6.40;;;3.40;99.90;;;;;;5025399;28;20034;-69
2022/03/05 09:52:59;;;;;;;12.40;6.65;;;3.60;99.90;;;;;;5022954;28;20045;-70
2022/03/05 09:55:26;;;;;;;16.00;7.22;;;3.60;99.90;;;;;;5022062;28;20049;-69
2022/03/05 09:57:52;;;;;;;12.23;5.95;;;3.80;99.90;;;;;;5021842;28;20403;-68
2022/03/05 10:00:17;;;;;;;13.57;6.40;;;4.00;99.90;;;;;;5025734;28;20014;-69
2022/03/05 10:02:45;;;;;;;12.57;6.68;;;4.10;99.90;;;;;;5029221;28;20513;-68
2022/03/05 10:05:26;;;;;;;12.32;6.95;;;4.20;99.90;;;;;;5026286;28;20474;-69
2022/03/05 10:08:00;;;;;;;12.07;6.30;;;4.30;99.90;;;;;;5019860;28;20053;-69
2022/03/05 10:10:28;;;;;;;15.23;6.65;;;4.40;99.90;;;;;;5017904;28;20030;-69
2022/03/05 10:12:53;;;;;;;13.20;8.13;;;4.60;99.90;;;;;;5021838;28;20348;-69
2022/03/05 10:15:21;;;;;;;12.75;7.15;;;4.70;99.90;;;;;;5004515;28;20032;-69
2022/03/05 10:17:56;;;;;;;12.15;6.50;;;4.90;99.90;;;;;;5022180;28;20138;-69
2022/03/05 10:20:27;;;;;;;14.95;7.13;;;5.30;99.90;;;;;;5021834;28;20021;-69
2022/03/05 10:23:08;;;;;;;13.55;6.40;;;5.70;99.90;;;;;;5016990;28;20056;-69
2022/03/05 10:25:46;;;;;;;10.57;6.18;;;6.30;99.90;;;;;;5003326;28;21288;-69
2022/03/05 10:28:15;;;;;;;11.45;6.80;;;6.70;97.80;;;;;;5020700;28;20120;-69
2022/03/05 10:30:48;;;;;;;12.40;7.22;;;7.20;93.80;;;;;;5024962;28;20033;-69
2022/03/05 10:33:30;;;;;;;14.52;7.38;;;7.80;91.10;;;;;;5023975;28;20033;-70
2022/03/05 10:36:02;;;;;;;10.18;6.57;;;8.80;81.70;;;;;;5009175;28;20112;-69
2022/03/05 10:38:47;;;;;;;;;;;9.80;71.50;;;;;;5021667;28;20182;-69
2022/03/05 10:41:17;;;;;;;8.80;5.60;;;10.70;65.20;;;;;;5025688;28;19909;-69
2022/03/05 10:43:47;;;;;;;10.07;6.07;;;12.10;59.40;;;;;;5024425;28;20022;-69
2022/03/05 10:46:13;;;;;;;6.25;4.97;;;13.40;54.10;;;;;;5024123;28;20777;-69
2022/03/05 10:48:41;;;;;;;7.35;4.82;;;14.30;52.40;;;;;;5024400;28;20034;-69
2022/03/05 10:51:12;;;;;;;9.23;5.15;;;15.10;48.80;;;;;;5026549;28;20045;-69
2022/03/05 10:53:47;;;;;;;;;;;15.30;47.70;;;;;;5038663;28;20108;-69
2022/03/05 10:56:29;;;;;;;7.93;5.30;;;15.20;45.20;;;;;;5024946;28;19924;-69
2022/03/05 10:59:04;;;;;;;8.27;4.75;;;14.90;47.90;;;;;;5025554;28;20029;-69
2022/03/05 11:01:30;;;;;;;10.20;6.05;;;14.60;48.20;;;;;;5026100;28;20079;-69
2022/03/05 11:03:57;;;;;;;14.38;6.22;;;14.10;47.90;;;;;;5030177;28;20037;-69
2022/03/05 11:06:23;;;;;;;13.20;6.70;;;13.30;48.50;;;;;;5018024;28;20040;-68
2022/03/05 11:08:50;;;;;;;9.60;5.88;;;12.70;49.70;;;;;;5017859;28;20025;-68
2022/03/05 11:11:18;;;;;;;10.48;6.65;;;12.50;51.60;;;;;;5024324;28;20029;-69
2022/03/05 11:13:45;;;;;;;8.27;4.85;;;12.40;50.60;;;;;;5031258;28;20029;-68
2022/03/05 11:16:11;;;;;;;11.10;4.80;;;13.10;50.40;;;;;;5025280;28;20103;-68
2022/03/05 11:18:41;;;;;;;9.05;4.70;;;14.20;48.60;;;;;;5029164;28;20467;-69
2022/03/05 11:21:08;;;;;;;7.45;4.85;;;15.50;45.50;;;;;;5028675;28;20025;-70
2022/03/05 11:23:35;;;;;;;7.85;4.45;;;16.20;43.10;;;;;;5024922;28;20128;-70
2022/03/05 11:26:02;;;;;;;6.78;4.32;;;16.80;41.70;;;;;;5028447;28;20037;-70
2022/03/05 11:28:36;;;;;;;7.53;4.43;;;16.60;42.90;;;;;;5025952;28;20068;-70
2022/03/05 11:31:06;;;;;;;10.20;5.55;;;16.60;42.40;;;;;;5027322;28;20021;-70
2022/03/05 11:33:43;;;;;;;6.85;4.85;;;16.20;43.00;;;;;;5028804;28;20103;-70
2022/03/05 11:36:28;;;;;;;6.47;5.22;;;16.50;42.90;;;;;;5025103;28;20065;-71
2022/03/05 11:39:27;;;;;;;8.20;4.70;;;15.50;41.20;;;;;;5026435;28;20086;-70
2022/03/05 11:42:01;;;;;;;5.85;4.68;;;15.30;44.40;;;;;;5023742;28;20060;-70
2022/03/05 11:44:46;;;;;;;7.22;4.60;;;14.60;43.50;;;;;;5022730;28;20050;-72
2022/03/05 11:47:24;;;;;;;8.68;5.00;;;13.10;46.10;;;;;;5029307;28;20029;-71
2022/03/05 11:49:58;;;;;;;7.53;4.80;;;11.80;49.60;;;;;;5014423;28;20050;-70
2022/03/05 11:52:43;;;;;;;10.52;5.32;;;10.80;52.10;;;;;;5021569;28;20476;-71
2022/03/05 11:55:13;;;;;;;8.63;5.28;;;10.10;54.00;;;;;;5023457;28;20041;-70
2022/03/05 11:57:39;;;;;;;7.63;4.88;;;9.40;55.40;;;;;;5023804;28;20038;-71
2022/03/05 12:00:06;;;;;;;7.40;4.25;;;8.90;57.50;;;;;;5024759;28;20040;-70
2022/03/05 12:02:42;;;;;;;9.88;5.40;;;8.60;58.90;;;;;;5027372;28;20077;-70
2022/03/05 12:05:08;;;;;;;9.73;5.30;;;8.40;59.20;;;;;;5031882;28;20029;-71
2022/03/05 12:07:42;;;;;;;8.45;4.70;;;8.20;59.50;;;;;;5021904;28;20103;-68
2022/03/05 12:10:15;;;;;;;7.57;4.85;;;7.90;60.00;;;;;;5028655;28;20037;-69
2022/03/05 12:12:53;;;;;;;9.13;4.88;;;7.60;60.10;;;;;;5045939;28;20045;-71
2022/03/05 12:15:26;;;;;;;9.25;5.22;;;7.50;61.60;;;;;;5032529;28;20103;-70
2022/03/05 12:17:52;;;;;;;6.47;4.25;;;7.50;62.10;;;;;;5028689;28;20095;-69
2022/03/05 12:20:26;;;;;;;8.40;4.85;;;7.60;62.30;;;;;;5033870;28;20049;-70
2022/03/05 12:23:09;;;;;;;6.05;4.22;;;7.70;61.80;;;;;;5027826;28;20100;-68
2022/03/05 12:25:38;;;;;;;8.38;5.10;;;7.70;61.70;;;;;;5046833;28;20025;-69
2022/03/05 12:28:11;;;;;;;7.00;4.65;;;7.70;60.90;;;;;;5025636;28;20029;-69
2022/03/05 12:30:38;;;;;;;7.80;4.53;;;7.80;61.60;;;;;;5030067;28;20030;-73
2022/03/05 12:33:12;;;;;;;7.18;4.40;;;7.80;61.10;;;;;;5029373;28;20037;-73
2022/03/05 12:35:39;;;;;;;9.48;5.05;;;7.90;60.70;;;;;;5028378;28;20375;-71
2022/03/05 12:38:06;;;;;;;7.25;4.78;;;7.90;59.30;;;;;;5029504;28;20022;-73
2022/03/05 12:40:32;;;;;;;9.13;5.47;;;7.90;60.00;;;;;;5032470;28;20395;-72
2022/03/05 12:43:00;;;;;;;12.50;5.13;;;7.90;60.90;;;;;;5028611;28;20112;-72
2022/03/05 12:45:36;;;;;;;7.93;5.30;;;7.80;60.90;;;;;;5029410;28;20493;-73
2022/03/05 12:48:09;;;;;;;10.65;5.60;;;7.50;61.40;;;;;;5031494;28;20038;-72
2022/03/05 12:50:44;;;;;;;9.77;4.93;;;7.50;62.40;;;;;;5029225;28;20057;-71
2022/03/05 12:53:16;;;;;;;9.82;5.75;;;7.50;62.00;;;;;;5031352;28;20033;-72
2022/03/05 12:55:47;;;;;;;9.57;5.97;;;7.40;62.30;;;;;;5027586;28;20029;-70